TAF Text Data
IDs:
Format:
Raw Decoded Include METAR

Data at: 1344 UTC 20 Jul 2019

KJAX 201256Z 00000KT 10SM FEW030 FEW250 27/23 A3010 RMK AO2 SLP194 T02670228

KJAX 201120Z 2012/2112 VRB03KT P6SM FEW030 BKN250
  FM201900 18008KT P6SM VCTS SCT050CB BKN250
  FM210000 VRB04KT P6SM SCT250


KCRG 201253Z 10004KT 10SM CLR 27/24 A3011 RMK AO2 SLP194 T02670244 $

KCRG 201120Z 2012/2112 VRB03KT P6SM FEW030 BKN250
  FM201900 18008KT P6SM VCTS SCT040CB BKN250
  FM210000 VRB04KT P6SM SCT250


KVQQ 201250Z VRB04KT 10SM CLR 28/24 A3011

KVQQ 201120Z 2012/2112 VRB03KT P6SM FEW030 BKN250
  FM201400 21005KT P6SM SCT030 BKN250
  FM201900 18006KT P6SM VCTS SCT050CB BKN250
  TEMPO 2020/2023 3SM TSRA BKN040CB BKN080 OVC200
  FM210200 VRB02KT P6SM SCT250


KGNV 201253Z 00000KT 10SM CLR 26/23 A3014 RMK AO2 SLP202 T02560228

KGNV 201120Z 2012/2112 VRB03KT P6SM FEW030 BKN250
  TEMPO 2012/2013 4SM HZ SCT002
  FM201300 18005KT P6SM FEW030 SCT250
  FM201800 21008KT P6SM VCTS SCT050CB BKN250
  TEMPO 2020/2024 VRB25KT 3SM TSRA SCT025 BKN040CB OVC080
  FM210000 VRB02KT P6SM SCT250


KSGJ 201256Z 07003KT 10SM FEW011 28/25 A3012 RMK AO2 SLP198 T02780250

KSGJ 201120Z 2012/2112 VRB03KT P6SM FEW030 BKN250
  FM201600 14010KT P6SM FEW060 BKN250
  FM210000 18006KT P6SM SCT250


KSSI 201253Z AUTO VRB03KT 10SM CLR 27/23 A3011 RMK AO2 SLP196 T02670228 TSNO

KSSI 201120Z 2012/2112 VRB03KT P6SM FEW030 BKN250
  FM201700 15010KT P6SM FEW060 BKN250
  FM210000 18006KT P6SM SCT250